Time;durP1;ratioP1;P1;durP2;ratioP2;P2;SDS_P1;SDS_P2;PMS_P1;PMS_P2;Temp;Humidity;BMP_temperature;BMP_pressure;BME280_temperature;BME280_humidity;BME280_pressure;Samples;Min_cycle;Max_cycle;Signal;HPM_P1;HPM_P2
2022/06/22 00:02:55;;;;;;;2.37;0.60;;;;;;;21.60;41.40;101276.63;16222925;19;129188;-61
2022/06/22 00:08:21;;;;;;;1.58;0.65;;;;;;;21.60;41.65;101248.78;16222697;19;129150;-61
2022/06/22 00:13:53;;;;;;;1.27;0.80;;;;;;;21.59;41.65;101236.81;16219238;19;132491;-61
2022/06/22 00:19:27;;;;;;;1.67;0.50;;;;;;;21.59;41.33;101236.81;16223955;19;130121;-61
2022/06/22 00:25:01;;;;;;;3.08;0.50;;;;;;;21.57;41.49;101216.75;16222892;19;128229;-61
2022/06/22 00:30:31;;;;;;;2.35;0.70;;;;;;;21.56;41.68;101226.19;16224169;19;129023;-61
2022/06/22 00:35:56;;;;;;;1.85;0.40;;;;;;;21.55;41.69;101232.00;16219816;19;129540;-61
2022/06/22 00:41:23;;;;;;;1.80;0.75;;;;;;;21.55;41.63;101245.94;16223671;19;129045;-61
2022/06/22 00:46:56;;;;;;;2.17;0.47;;;;;;;21.55;41.86;101243.13;16217111;19;128950;-61
2022/06/22 00:52:26;;;;;;;1.75;0.50;;;;;;;21.56;41.75;101236.47;16217347;19;128969;-61
2022/06/22 00:57:59;;;;;;;1.02;0.50;;;;;;;21.51;41.37;101213.06;16222170;19;129530;-61
2022/06/22 01:03:32;;;;;;;1.50;0.80;;;;;;;21.51;41.11;101190.78;16220100;19;128266;-61
2022/06/22 01:09:33;;;;;;;1.95;0.70;;;;;;;21.50;40.98;101205.81;16219739;19;129073;-61
2022/06/22 01:14:55;;;;;;;1.52;0.60;;;;;;;21.48;41.44;101212.69;16217841;19;128984;-61
2022/06/22 01:20:19;;;;;;;3.03;0.63;;;;;;;21.48;40.92;101218.25;16216783;19;129403;-61
2022/06/22 01:25:41;;;;;;;1.80;0.90;;;;;;;21.47;41.13;101220.19;16215145;19;128245;-61
2022/06/22 01:31:11;;;;;;;1.65;0.57;;;;;;;21.46;41.17;101226.88;16215665;19;129791;-61
2022/06/22 01:36:33;;;;;;;1.58;0.50;;;;;;;21.46;41.35;101232.44;16213231;19;129149;-61
2022/06/22 01:42:16;;;;;;;5.50;0.90;;;;;;;21.47;41.38;101228.56;16217447;19;130882;-61
2022/06/22 01:47:44;;;;;;;1.25;0.43;;;;;;;21.45;41.00;101225.19;16217664;19;129770;-61
2022/06/22 01:53:13;;;;;;;2.38;0.80;;;;;;;21.43;41.10;101232.94;16217682;19;129101;-61
2022/06/22 01:58:41;;;;;;;2.45;0.60;;;;;;;21.43;41.30;101227.38;16217167;19;129689;-61
2022/06/22 02:04:08;;;;;;;1.70;0.70;;;;;;;21.42;41.00;101219.28;16213767;19;129587;-61
2022/06/22 02:09:50;;;;;;;1.02;0.70;;;;;;;21.42;40.94;101225.69;16211387;19;129592;-61
2022/06/22 02:15:39;;;;;;;2.25;0.60;;;;;;;21.42;41.24;101224.88;16215148;19;129026;-61
2022/06/22 02:21:22;;;;;;;4.28;0.70;;;;;;;21.41;41.34;101223.19;16214418;19;129030;-61
2022/06/22 02:27:02;;;;;;;2.72;0.60;;;;;;;21.41;41.08;101218.47;16210297;19;129244;-61
2022/06/22 02:32:32;;;;;;;2.15;0.80;;;;;;;21.39;41.43;101209.53;16230871;19;129266;-62
2022/06/22 02:38:02;;;;;;;1.67;0.63;;;;;;;21.38;41.19;101199.50;16223690;19;129245;-61
2022/06/22 02:49:39;;;;;;;1.08;0.57;;;;;;;21.35;41.36;101186.91;16227823;19;129179;-61
2022/06/22 02:55:02;;;;;;;2.10;0.60;;;;;;;21.35;41.11;101184.13;16228687;19;131134;-61
2022/06/22 03:00:28;;;;;;;2.45;0.80;;;;;;;21.36;41.11;101176.66;16228992;19;130584;-61
2022/06/22 03:05:53;;;;;;;1.42;0.70;;;;;;;21.34;41.16;101165.78;16225558;19;129833;-61
2022/06/22 03:11:15;;;;;;;1.50;0.70;;;;;;;21.33;40.92;101166.03;16228675;19;129081;-61
2022/06/22 03:16:43;;;;;;;1.05;0.68;;;;;;;21.34;41.41;101154.66;16229897;19;128727;-61
2022/06/22 03:22:05;;;;;;;2.05;0.80;;;;;;;21.33;41.19;101166.03;16229263;19;128548;-61
2022/06/22 03:27:33;;;;;;;0.93;0.52;;;;;;;21.33;41.27;101183.56;16222693;19;129130;-61
2022/06/22 03:33:05;;;;;;;1.00;0.50;;;;;;;21.33;40.92;101191.06;16226896;19;128260;-61
2022/06/22 03:38:34;;;;;;;1.75;0.50;;;;;;;21.32;41.40;101186.59;16219837;19;128197;-61
2022/06/22 03:44:05;;;;;;;1.33;0.70;;;;;;;21.31;41.00;101196.03;16138172;19;129674;-61
2022/06/22 03:49:42;;;;;;;2.75;0.68;;;;;;;21.31;41.09;101198.81;16136731;19;130297;-61
2022/06/22 03:55:09;;;;;;;2.80;0.70;;;;;;;21.29;41.16;101187.13;16139302;19;129765;-61
2022/06/22 04:00:34;;;;;;;1.30;0.60;;;;;;;21.29;41.43;101187.13;16138943;19;129782;-61
2022/06/22 04:06:00;;;;;;;1.65;0.60;;;;;;;21.28;41.53;101185.47;16132035;19;131366;-61
2022/06/22 04:11:43;;;;;;;1.50;0.60;;;;;;;21.28;41.39;101177.09;16135004;19;130622;-61
2022/06/22 04:17:23;;;;;;;1.52;0.68;;;;;;;21.28;41.20;101174.31;16137142;19;129483;-61
2022/06/22 04:22:50;;;;;;;1.58;0.60;;;;;;;21.27;41.30;101172.63;16135697;19;130211;-61
2022/06/22 04:28:15;;;;;;;3.30;1.08;;;;;;;21.25;41.01;101172.88;16137521;19;129619;-61
2022/06/22 04:33:53;;;;;;;2.63;1.00;;;;;;;21.26;40.97;101171.78;16132767;19;130688;-61
2022/06/22 04:39:31;;;;;;;2.00;0.90;;;;;;;21.26;40.89;101170.94;16136991;19;129742;-61
2022/06/22 04:44:53;;;;;;;2.03;0.80;;;;;;;21.22;40.99;101177.03;16132210;19;130355;-61
2022/06/22 04:50:14;;;;;;;1.35;0.82;;;;;;;21.24;41.06;101195.41;16135048;19;130869;-61
2022/06/22 04:55:40;;;;;;;1.60;0.80;;;;;;;21.22;41.39;101196.50;16134563;19;130764;-61
2022/06/22 05:01:04;;;;;;;1.55;0.90;;;;;;;21.24;41.23;101189.84;16132674;19;129552;-61
2022/06/22 05:06:40;;;;;;;1.60;1.10;;;;;;;21.26;40.90;101176.53;16130657;19;129944;-61
2022/06/22 05:12:02;;;;;;;1.38;1.00;;;;;;;21.22;41.18;101190.13;16132569;19;129521;-61
2022/06/22 05:17:27;;;;;;;2.22;1.20;;;;;;;21.22;41.13;101196.50;16134053;19;128957;-61
2022/06/22 05:22:52;;;;;;;3.53;1.40;;;;;;;21.24;41.17;101206.53;16128863;19;130374;-61
2022/06/22 05:28:20;;;;;;;1.98;0.90;;;;;;;21.25;41.05;101208.22;16126772;19;129842;-61
2022/06/22 05:33:46;;;;;;;2.42;1.15;;;;;;;21.24;41.41;101209.31;16131729;19;130591;-61
2022/06/22 05:39:09;;;;;;;2.22;1.00;;;;;;;21.24;41.15;101206.53;16132392;19;129471;-61
2022/06/22 05:44:31;;;;;;;1.65;0.95;;;;;;;21.23;41.25;101200.16;16131886;19;129395;-61
2022/06/22 05:50:22;;;;;;;3.13;1.00;;;;;;;21.22;40.99;101213.19;16132148;19;129875;-61
2022/06/22 05:55:56;;;;;;;3.63;1.10;;;;;;;21.25;41.38;101214.63;16129974;19;129079;-61
2022/06/22 06:01:55;;;;;;;3.42;0.75;;;;;;;21.26;41.19;101221.03;16130662;19;132049;-61
2022/06/22 06:07:36;;;;;;;2.05;1.20;;;;;;;21.24;41.48;101239.94;16142041;19;130528;-61
2022/06/22 06:13:18;;;;;;;1.42;1.00;;;;;;;21.26;41.07;101230.22;16145285;19;129827;-61
2022/06/22 06:18:43;;;;;;;3.35;1.10;;;;;;;21.26;41.05;101232.16;16146367;19;129688;-60
2022/06/22 06:24:16;;;;;;;3.70;0.90;;;;;;;21.30;41.42;101228.63;16134452;19;130633;-61
2022/06/22 06:30:07;;;;;;;3.38;1.13;;;;;;;21.35;41.08;101214.75;16126554;19;131251;-61
2022/06/22 06:35:35;;;;;;;1.63;0.90;;;;;;;21.39;40.95;101228.16;16124938;19;131791;-61
2022/06/22 06:41:15;;;;;;;2.47;1.10;;;;;;;21.43;41.33;101232.94;16132497;19;129491;-61
2022/06/22 06:46:41;;;;;;;3.10;1.20;;;;;;;21.45;41.31;101222.41;16133284;19;129356;-61
2022/06/22 06:52:08;;;;;;;3.70;1.10;;;;;;;21.49;40.98;101209.69;16137979;19;130052;-61
2022/06/22 06:57:31;;;;;;;1.98;1.08;;;;;;;21.50;40.96;101210.50;16143961;19;129285;-61
2022/06/22 07:02:54;;;;;;;3.22;1.10;;;;;;;21.52;40.82;101200.81;16140641;19;130132;-61
2022/06/22 07:08:24;;;;;;;2.53;1.20;;;;;;;21.56;40.87;101190.00;16134228;19;129813;-61
2022/06/22 07:14:08;;;;;;;;;;;;;;;21.56;40.66;101203.06;16137536;19;129344;-61
2022/06/22 07:19:39;;;;;;;3.20;1.27;;;;;;;21.63;40.81;101198.16;16134002;19;130943;-62
2022/06/22 07:25:07;;;;;;;3.00;1.20;;;;;;;21.65;40.59;101182.88;16136408;19;129471;-62
2022/06/22 07:30:34;;;;;;;5.30;1.27;;;;;;;21.66;40.79;101181.78;16136144;19;130698;-62
2022/06/22 07:35:56;;;;;;;2.70;1.10;;;;;;;21.66;40.75;101181.78;16128443;19;129391;-62
2022/06/22 07:41:22;;;;;;;6.35;1.50;;;;;;;21.67;40.65;101177.03;16144727;19;130033;-61
2022/06/22 07:47:01;;;;;;;3.70;1.20;;;;;;;21.73;40.73;101180.72;16141240;19;129258;-62
2022/06/22 07:52:31;;;;;;;3.58;0.98;;;;;;;21.80;40.58;101176.63;16143269;19;129357;-62
2022/06/22 07:58:11;;;;;;;2.75;1.20;;;;;;;21.85;40.46;101180.56;16141370;19;128954;-62
2022/06/22 08:03:39;;;;;;;3.03;1.20;;;;;;;21.91;40.73;101183.16;16140796;19;129528;-62
2022/06/22 08:09:07;;;;;;;2.47;1.20;;;;;;;21.96;40.58;101190.72;16136060;19;129798;-62
2022/06/22 08:14:35;;;;;;;3.63;1.10;;;;;;;21.99;40.51;101195.78;16143704;19;129324;-62
2022/06/22 08:19:57;;;;;;;3.40;1.33;;;;;;;22.04;40.12;101200.56;16136360;19;129612;-62
2022/06/22 08:25:21;;;;;;;3.50;1.00;;;;;;;22.06;39.86;101199.16;16138563;19;129659;-62
2022/06/22 08:30:44;;;;;;;5.90;1.13;;;;;;;22.07;39.97;101202.81;16140248;19;130438;-62
2022/06/22 08:36:22;;;;;;;5.95;1.17;;;;;;;22.10;39.40;101197.56;16134806;19;130346;-62
2022/06/22 08:41:43;;;;;;;1.55;1.05;;;;;;;22.10;39.36;101194.75;16140064;19;129554;-62
2022/06/22 08:47:27;;;;;;;5.57;1.20;;;;;;;22.10;39.56;101197.56;16139491;19;129726;-62
2022/06/22 08:53:26;;;;;;;5.25;1.50;;;;;;;22.11;39.11;101199.22;16139012;19;129009;-62
2022/06/22 08:59:26;;;;;;;5.40;1.08;;;;;;;22.12;39.11;101203.72;16140013;19;128923;-62
2022/06/22 09:05:20;;;;;;;5.35;1.05;;;;;;;22.15;39.16;101201.50;16136998;19;128945;-62
2022/06/22 09:11:14;;;;;;;4.15;0.93;;;;;;;22.13;39.32;101202.59;16140151;19;129340;-62
2022/06/22 09:17:14;;;;;;;3.67;1.00;;;;;;;22.13;38.67;101197.03;16132994;19;130666;-62
2022/06/22 09:22:57;;;;;;;6.43;1.48;;;;;;;22.16;39.08;101205.94;16137570;19;129797;-62
2022/06/22 09:28:26;;;;;;;4.15;1.15;;;;;;;22.15;39.06;101205.13;16134235;19;128842;-62
2022/06/22 09:34:06;;;;;;;5.30;1.40;;;;;;;22.15;38.82;101210.69;16136363;19;129275;-62
2022/06/22 09:39:54;;;;;;;5.60;1.35;;;;;;;22.15;38.63;101209.88;16146351;19;129589;-62
2022/06/22 09:45:43;;;;;;;7.22;1.58;;;;;;;22.15;38.29;101190.34;16152136;19;130239;-62
2022/06/22 09:51:30;;;;;;;10.05;1.30;;;;;;;22.13;38.35;101188.66;16152683;19;130185;-62
2022/06/22 09:57:22;;;;;;;7.78;1.00;;;;;;;22.13;38.79;101187.81;16149637;19;129229;-62
2022/06/22 10:03:12;;;;;;;12.15;1.10;;;;;;;22.12;38.65;101184.19;16153164;19;129488;-62
2022/06/22 10:09:06;;;;;;;6.88;1.20;;;;;;;22.10;38.52;101175.25;16148584;19;129215;-62
2022/06/22 10:15:02;;;;;;;5.55;1.25;;;;;;;22.09;38.59;101184.72;16149486;19;129023;-62
2022/06/22 10:20:56;;;;;;;5.65;1.55;;;;;;;22.06;38.55;101165.75;16149718;19;129467;-62
2022/06/22 10:26:41;;;;;;;6.28;1.33;;;;;;;22.05;37.96;101172.41;16145482;19;130032;-62
2022/06/22 10:32:24;;;;;;;5.93;1.27;;;;;;;22.04;38.59;101176.31;16145795;19;130733;-62
2022/06/22 10:38:04;;;;;;;5.80;1.52;;;;;;;22.01;38.24;101171.28;16133113;19;130420;-63
2022/06/22 10:50:22;;;;;;;8.10;1.88;;;;;;;22.00;37.83;101166.81;16131834;19;130592;-62
2022/06/22 10:56:26;;;;;;;7.05;1.42;;;;;;;22.00;38.17;101186.31;16128750;19;131086;-63
2022/06/22 11:01:56;;;;;;;6.47;1.45;;;;;;;22.01;37.89;101176.00;16139849;19;130687;-63
2022/06/22 11:07:43;;;;;;;8.02;1.23;;;;;;;22.01;37.79;101179.63;16138558;19;130072;-61
2022/06/22 11:13:48;;;;;;;5.38;1.58;;;;;;;21.99;37.60;101165.13;16146101;19;129370;-61
2022/06/22 11:19:28;;;;;;;11.60;1.40;;;;;;;22.01;37.55;101168.50;16148470;19;129172;-62
2022/06/22 11:25:11;;;;;;;8.20;1.48;;;;;;;22.02;37.60;101177.69;16147684;19;129654;-56
2022/06/22 11:30:51;;;;;;;5.35;1.35;;;;;;;22.00;38.02;101169.59;16146040;19;129308;-58
2022/06/22 11:36:26;;;;;;;6.45;1.23;;;;;;;21.97;38.16;101170.13;16141530;19;130224;-57
2022/06/22 11:42:22;;;;;;;4.93;1.10;;;;;;;21.96;37.87;101169.28;16145956;19;129081;-57
2022/06/22 11:47:56;;;;;;;3.63;1.02;;;;;;;21.96;37.54;101160.06;16142954;19;129228;-57
2022/06/22 11:53:55;;;;;;;3.65;1.13;;;;;;;21.92;37.33;101156.13;16139423;19;130867;-58
2022/06/22 11:59:27;;;;;;;8.05;1.27;;;;;;;21.94;37.58;101151.13;16143732;19;129512;-58
2022/06/22 12:05:14;;;;;;;8.75;1.65;;;;;;;21.95;37.19;101150.03;16135900;19;129893;-60
2022/06/22 12:10:43;;;;;;;5.65;1.60;;;;;;;21.95;37.70;101150.03;16144118;19;129386;-58
2022/06/22 12:16:50;;;;;;;5.77;1.80;;;;;;;22.00;37.26;101152.03;16145361;19;129260;-57
2022/06/22 12:22:22;;;;;;;7.63;1.30;;;;;;;22.00;37.54;101141.75;16142568;19;129484;-57
2022/06/22 12:28:23;;;;;;;8.90;1.00;;;;;;;22.01;37.71;101132.28;16140739;19;130566;-58
2022/06/22 12:34:00;;;;;;;4.38;1.00;;;;;;;22.01;37.24;101137.84;16134051;19;129270;-57
2022/06/22 12:39:42;;;;;;;3.50;1.10;;;;;;;22.01;37.35;101132.28;16144708;19;129955;-58
2022/06/22 12:45:07;;;;;;;4.95;1.25;;;;;;;21.98;37.38;101116.09;16141366;19;129602;-58
2022/06/22 12:50:44;;;;;;;2.35;0.70;;;;;;;22.00;37.66;101108.31;16143118;19;128905;-58
2022/06/22 12:56:21;;;;;;;3.50;0.80;;;;;;;22.03;37.42;101107.75;16142108;19;128954;-56
2022/06/22 13:01:43;;;;;;;4.88;1.00;;;;;;;22.01;37.68;101092.41;16136543;19;129612;-58
2022/06/22 13:07:16;;;;;;;4.68;1.00;;;;;;;22.01;37.25;101084.91;16137121;19;129126;-59
2022/06/22 13:12:53;;;;;;;3.75;1.25;;;;;;;22.00;37.18;101080.44;16131708;19;129959;-58
2022/06/22 13:18:42;;;;;;;3.38;0.80;;;;;;;22.00;36.90;101080.44;16140450;19;130385;-57
2022/06/22 13:24:16;;;;;;;4.43;1.02;;;;;;;21.97;37.13;101065.09;16139697;19;129069;-58
2022/06/22 13:29:53;;;;;;;4.57;1.17;;;;;;;21.99;37.00;101062.06;16133978;19;129729;-57
2022/06/22 13:35:43;;;;;;;2.47;0.90;;;;;;;22.00;36.86;101063.75;16134788;19;129228;-57
2022/06/22 13:41:13;;;;;;;4.68;1.10;;;;;;;21.98;37.26;101055.63;16138980;19;129487;-58
2022/06/22 13:46:41;;;;;;;2.63;0.68;;;;;;;22.00;36.87;101058.16;16136023;19;129110;-57
2022/06/22 13:52:30;;;;;;;5.07;0.75;;;;;;;22.02;36.82;101061.53;16136978;19;130545;-58
2022/06/22 13:58:03;;;;;;;10.15;1.45;;;;;;;22.03;37.34;101063.19;16131306;19;130031;-59
2022/06/22 14:03:57;;;;;;;5.93;1.10;;;;;;;22.05;36.96;101055.41;16135566;19;128856;-59
2022/06/22 14:09:31;;;;;;;2.90;1.10;;;;;;;22.07;36.96;101055.16;16133135;19;129883;-58
2022/06/22 14:15:11;;;;;;;6.75;1.90;;;;;;;22.09;37.19;101056.56;16136442;19;130685;-57
2022/06/22 14:20:45;;;;;;;6.40;1.23;;;;;;;22.10;36.93;101043.44;16134338;19;130275;-57
2022/06/22 14:26:22;;;;;;;4.45;0.80;;;;;;;22.10;37.23;101044.31;16142960;19;129370;-58
2022/06/22 14:32:01;;;;;;;6.70;1.15;;;;;;;22.10;37.12;101037.88;16148890;19;128895;-57
2022/06/22 14:37:36;;;;;;;7.60;0.77;;;;;;;22.10;36.87;101035.09;16142799;19;130276;-58
2022/06/22 14:43:15;;;;;;;7.43;0.90;;;;;;;22.14;36.73;101036.25;16148108;19;128908;-57
2022/06/22 14:48:47;;;;;;;7.80;1.10;;;;;;;22.19;36.54;101027.94;16146457;19;129908;-58
2022/06/22 14:54:19;;;;;;;6.45;1.50;;;;;;;22.23;36.11;101025.47;16144165;19;129232;-59
2022/06/22 15:00:08;;;;;;;6.40;1.25;;;;;;;22.24;35.98;101027.97;16149350;19;129520;-58
2022/06/22 15:06:02;;;;;;;5.80;0.82;;;;;;;22.21;36.50;101013.75;16147672;19;129474;-58
2022/06/22 15:17:57;;;;;;;5.15;1.10;;;;;;;22.24;36.45;101002.91;16148670;19;131094;-66
2022/06/22 15:23:28;;;;;;;5.60;1.10;;;;;;;22.25;35.85;100989.81;16139172;19;130642;-63
2022/06/22 15:29:13;;;;;;;4.15;1.10;;;;;;;22.28;35.74;100992.91;16141812;19;129314;-64
2022/06/22 15:34:52;;;;;;;2.75;1.00;;;;;;;22.32;35.89;100993.19;16142491;19;129885;-65
2022/06/22 15:40:29;;;;;;;4.43;1.25;;;;;;;22.39;36.25;100982.66;16145999;19;130397;-66
2022/06/22 15:46:08;;;;;;;1.92;0.80;;;;;;;22.47;36.16;100972.09;16142276;19;129658;-65
2022/06/22 15:51:36;;;;;;;4.10;1.10;;;;;;;22.49;35.76;100979.06;16143983;19;131431;-66
2022/06/22 15:57:09;;;;;;;5.95;0.85;;;;;;;22.53;36.04;100982.16;16144559;19;129127;-66
2022/06/22 16:02:40;;;;;;;4.38;1.33;;;;;;;22.57;35.54;100980.50;16143204;19;130529;-66
2022/06/22 16:08:14;;;;;;;5.60;1.00;;;;;;;22.57;35.30;100969.34;16141270;19;129637;-66
2022/06/22 16:13:48;;;;;;;4.70;0.90;;;;;;;22.62;35.33;100962.94;16140838;19;129579;-66
2022/06/22 16:19:10;;;;;;;5.43;1.00;;;;;;;22.63;35.55;100953.47;16144811;19;129625;-66
2022/06/22 16:24:34;;;;;;;2.70;0.90;;;;;;;22.68;35.31;100950.72;16139657;19;129153;-66
2022/06/22 16:29:59;;;;;;;4.07;1.03;;;;;;;22.69;35.35;100950.44;16137592;19;130231;-67
2022/06/22 16:35:47;;;;;;;1.85;0.90;;;;;;;22.71;34.77;100958.50;16136758;19;130412;-67
2022/06/22 16:41:29;;;;;;;2.35;1.00;;;;;;;22.71;34.96;100953.78;16143056;19;130638;-67
2022/06/22 16:47:11;;;;;;;3.95;0.88;;;;;;;22.71;34.79;100948.22;16140421;19;129710;-65
2022/06/22 16:52:39;;;;;;;4.00;0.90;;;;;;;22.72;34.90;100952.69;16141629;19;129858;-67
2022/06/22 16:58:01;;;;;;;4.03;1.02;;;;;;;22.71;34.96;100939.00;16142913;19;129288;-66
2022/06/22 17:03:35;;;;;;;3.55;0.70;;;;;;;22.72;34.95;100937.88;16138201;19;132306;-67
2022/06/22 17:09:04;;;;;;;5.10;1.13;;;;;;;22.72;34.84;100946.25;16137371;19;129365;-65
2022/06/22 17:14:33;;;;;;;5.13;0.90;;;;;;;22.74;34.59;100944.88;16140148;19;129631;-65
2022/06/22 17:20:03;;;;;;;4.60;0.90;;;;;;;22.73;34.73;100943.22;16140947;19;128967;-65
2022/06/22 17:25:43;;;;;;;3.20;1.13;;;;;;;22.74;34.95;100939.31;16139145;19;129296;-65
2022/06/22 17:31:25;;;;;;;2.63;0.90;;;;;;;22.73;34.82;100936.78;16134283;19;129018;-66
2022/06/22 17:36:57;;;;;;;4.50;1.02;;;;;;;22.72;34.97;100935.94;16133834;19;130586;-66
2022/06/22 17:42:38;;;;;;;2.05;0.80;;;;;;;22.71;34.23;100953.78;16135560;19;129211;-66
2022/06/22 17:48:15;;;;;;;3.55;0.95;;;;;;;22.70;34.48;100954.06;16131397;19;129022;-66
2022/06/22 17:53:40;;;;;;;9.00;1.80;;;;;;;22.67;34.43;100966.59;16136270;19;128854;-66
2022/06/22 17:59:29;;;;;;;1.70;0.80;;;;;;;22.65;34.32;100973.56;16139641;19;129664;-66
2022/06/22 18:05:30;;;;;;;3.78;0.88;;;;;;;22.63;34.23;100971.06;16150866;19;129704;-66
2022/06/22 18:11:03;;;;;;;4.40;1.30;;;;;;;22.60;34.19;100977.19;16148318;19;129517;-66
2022/06/22 18:16:32;;;;;;;1.33;0.73;;;;;;;22.57;34.35;100984.16;16152048;19;129574;-66
2022/06/22 18:22:00;;;;;;;2.33;1.00;;;;;;;22.55;34.37;100980.78;16148101;19;129217;-66
2022/06/22 18:27:35;;;;;;;7.00;1.00;;;;;;;22.55;33.87;100979.94;16149227;19;129278;-66
2022/06/22 18:33:09;;;;;;;2.50;0.87;;;;;;;22.53;34.15;100982.16;16148493;19;129508;-67
2022/06/22 18:44:26;;;;;;;4.15;0.90;;;;;;;22.51;34.45;100978.81;16150109;19;129635;-65
2022/06/22 18:50:18;;;;;;;6.80;0.90;;;;;;;22.51;35.03;100982.44;16146943;19;129697;-64
2022/06/22 18:55:47;;;;;;;1.73;1.00;;;;;;;22.49;35.06;100981.03;16150429;19;129510;-66
2022/06/22 19:01:22;;;;;;;5.63;0.90;;;;;;;22.48;34.98;100985.75;16146724;19;128979;-66
2022/06/22 19:06:49;;;;;;;3.08;0.82;;;;;;;22.47;35.13;100978.50;16147788;19;128866;-66
2022/06/22 19:12:32;;;;;;;7.63;1.08;;;;;;;22.47;35.19;100977.66;16146102;19;129366;-66
2022/06/22 19:18:07;;;;;;;4.68;0.98;;;;;;;22.46;35.19;100987.13;16147128;19;129200;-66
2022/06/22 19:23:31;;;;;;;3.97;1.02;;;;;;;22.42;35.55;100992.44;16146650;19;129826;-66
2022/06/22 19:29:28;;;;;;;2.13;0.70;;;;;;;22.39;35.77;100992.97;16141513;19;131502;-66
2022/06/22 19:35:06;;;;;;;5.57;1.20;;;;;;;22.39;35.60;100999.38;16141357;19;129450;-67
2022/06/22 19:40:44;;;;;;;4.18;0.90;;;;;;;22.39;35.85;101010.53;16148441;19;129054;-66
2022/06/22 19:46:21;;;;;;;3.33;1.13;;;;;;;22.39;35.84;101016.13;16140991;19;130060;-67
2022/06/22 19:52:21;;;;;;;5.07;0.80;;;;;;;22.38;36.18;101011.66;16134368;19;129618;-64
2022/06/22 19:57:43;;;;;;;4.90;1.05;;;;;;;22.37;36.25;101009.97;16140172;19;129252;-65
2022/06/22 20:03:35;;;;;;;3.40;0.90;;;;;;;22.40;36.66;101017.75;16139353;19;130626;-65
2022/06/22 20:09:01;;;;;;;6.80;1.02;;;;;;;22.40;36.58;101023.34;16137277;19;129848;-65
2022/06/22 20:14:45;;;;;;;3.88;0.82;;;;;;;22.44;37.33;101030.06;16139910;19;130124;-64
2022/06/22 20:20:08;;;;;;;4.05;1.15;;;;;;;22.44;37.48;101032.03;16126544;19;129284;-64
2022/06/22 20:25:53;;;;;;;3.95;0.80;;;;;;;22.46;37.63;101042.91;16132081;19;129603;-65
2022/06/22 20:31:42;;;;;;;3.05;1.00;;;;;;;22.49;37.57;101045.16;16126242;19;130994;-64
2022/06/22 20:37:33;;;;;;;3.15;0.80;;;;;;;22.48;37.25;101046.25;16128188;19;130471;-65
2022/06/22 20:43:22;;;;;;;3.67;0.80;;;;;;;22.49;37.09;101050.72;16134966;19;129657;-63
2022/06/22 20:49:10;;;;;;;3.47;0.90;;;;;;;22.49;37.11;101048.75;16136266;19;130751;-64
2022/06/22 20:54:44;;;;;;;1.98;0.73;;;;;;;22.48;37.23;101046.25;16140319;19;130071;-65
2022/06/22 21:00:12;;;;;;;5.80;0.80;;;;;;;22.50;37.84;101067.16;16132481;19;129575;-67
2022/06/22 21:05:37;;;;;;;5.38;0.93;;;;;;;22.51;37.28;101056.88;16136469;19;130027;-67
2022/06/22 21:11:20;;;;;;;5.83;1.37;;;;;;;22.49;37.23;101062.69;16134228;19;129670;-67
2022/06/22 21:17:08;;;;;;;2.65;0.80;;;;;;;22.48;37.07;101068.56;16134671;19;129613;-67
2022/06/22 21:22:36;;;;;;;7.00;0.80;;;;;;;22.44;37.20;101082.19;16136799;19;129688;-67
2022/06/22 21:28:20;;;;;;;3.22;0.68;;;;;;;22.40;37.26;101079.09;16131600;19;130528;-67
2022/06/22 21:33:57;;;;;;;3.67;0.90;;;;;;;22.40;37.07;101095.81;16134964;19;129509;-68
2022/06/22 21:39:27;;;;;;;4.78;0.60;;;;;;;22.37;37.72;101085.22;16150175;19;128988;-67
2022/06/22 21:45:22;;;;;;;3.70;1.00;;;;;;;22.34;37.65;101085.75;16148096;19;129780;-67
2022/06/22 21:51:10;;;;;;;3.65;1.30;;;;;;;22.32;37.90;101092.72;16149477;19;129459;-67
2022/06/22 21:57:23;;;;;;;5.35;0.65;;;;;;;22.28;38.10;101095.16;16141681;19;130177;-67
2022/06/22 22:03:19;;;;;;;2.40;0.70;;;;;;;22.29;37.81;101094.06;16138344;19;130136;-67
2022/06/22 22:08:51;;;;;;;5.73;1.33;;;;;;;22.26;38.46;101089.88;16138491;19;129893;-68
2022/06/22 22:14:17;;;;;;;1.70;0.77;;;;;;;22.25;38.03;101090.16;16136853;19;129815;-67
2022/06/22 22:20:02;;;;;;;1.85;0.70;;;;;;;22.26;38.17;101100.19;16137951;19;130152;-67
2022/06/22 22:25:28;;;;;;;3.33;0.98;;;;;;;22.22;38.55;101093.47;16137381;19;129961;-67
2022/06/22 22:30:56;;;;;;;1.20;0.70;;;;;;;22.23;38.39;101084.00;16132060;19;130787;-67
2022/06/22 22:36:21;;;;;;;2.03;0.73;;;;;;;22.20;38.41;101088.13;16135685;19;130363;-67
2022/06/22 22:41:53;;;;;;;2.10;0.88;;;;;;;22.21;38.29;101080.63;16146314;19;129534;-67
2022/06/22 22:47:33;;;;;;;1.20;0.70;;;;;;;22.21;38.18;101080.63;16144432;19;129834;-68
2022/06/22 22:52:59;;;;;;;2.00;0.60;;;;;;;22.19;38.65;101071.66;16142318;19;130046;-67
2022/06/22 22:58:20;;;;;;;;;;;;;;;22.15;38.28;101064.97;16145192;19;131250;-68
2022/06/22 23:03:43;;;;;;;1.90;0.77;;;;;;;22.17;38.63;101068.31;16144373;19;130263;-68
2022/06/22 23:09:08;;;;;;;2.38;0.75;;;;;;;22.16;38.57;101063.84;16145366;19;129910;-68
2022/06/22 23:14:32;;;;;;;2.73;0.60;;;;;;;22.15;38.71;101049.06;16148282;19;129091;-67
2022/06/22 23:19:59;;;;;;;1.30;0.70;;;;;;;22.16;38.69;101055.47;16140354;19;130134;-68
2022/06/22 23:25:34;;;;;;;1.08;0.68;;;;;;;22.15;38.75;101048.25;16143560;19;130252;-67
2022/06/22 23:30:57;;;;;;;1.52;0.68;;;;;;;22.14;38.77;101047.41;16139334;19;129680;-68
2022/06/22 23:36:27;;;;;;;2.05;0.60;;;;;;;22.13;38.21;101046.56;16137061;19;131365;-68
2022/06/22 23:42:00;;;;;;;3.42;0.75;;;;;;;22.12;38.35;101050.47;16143524;19;129534;-68
2022/06/22 23:53:03;;;;;;;0.70;0.50;;;;;;;22.10;38.66;101041.53;16138643;19;129843;-68
2022/06/22 23:58:29;;;;;;;2.70;0.65;;;;;;;22.11;38.36;101045.13;16141881;19;129569;-68
